ACB weather

Antrim County Airport
Bellaire, Michigan, United States

Public forecast

Using degrees Fahrenheit for public forecast. Weather courtesy of forecast.io.

METAR (pilot weather report)

Retrieved 2019/05/24 04:36 UTC (0 seconds ago):

KACB 240436Z AUTO 34004KT 10SM BKN050 12/08 A3008 RMK AO2 T01150077

TAF (pilot weather forecast)

Closest forecast is Cherry Capital Airport, 22.1 nm (40.9 km) SW. Retrieved 2019/05/24 01:24 UTC (3 hours ago):

TAF KTVC 240123Z 2401/2424 30008KT P6SM SCT040 FM240200 31006KT P6SM BKN040 FM240400 VRB04KT P6SM BKN017 FM241900 14005KT P6SM OVC050